Detall de PIREP

Printer-friendly versionPDF version

[2014/06/03 07:15:00]
Flight IATA:CT2303
Pilot Number:042
Company ICAO:CAT
Aircraft Type:F100/A
PAX:48
Aircraft Registration:PFJ
Departing Airport: LIBR
Destination Airport: LIEA
Alternate Airport:LIEO
Online: VATSIM
Route:ROBOT UL995 LUXIL UM742 SOR UM603 MOROB
Flight Level:F260
No Slew and time accel
No pause
Crash detect
Detect pilot in Cockpit between each 30 and 45 minutes
07:15 Zero fuel Weight: 81825 Lbs, Fuel Weight: 22689 Lbs
07:15 VATSIM:LIBR 030645Z 36006KT 9999 FEW025 20/18 Q1012 NOSIG
07:15 VATSIM:LIEA 030650Z 19005KT 9999 FEW017 19/15 Q1015
07:17 Parking Brakes off
07:19 Take-off
07:19 Take off Weight: 104190 Lbs
07:19 Wind: 000º @ 006 Knots Heading: 318º
07:19 POS N40º 40´ 17´´ E017º 55´ 50´´
07:19 Gear Up: 169 Knots
07:19 Flaps:1 at 169 Knots
07:19 Flaps:0 at 184 Knots
07:34 Wind:009º@030 Knots Heading: 266º Ground Speed: 434 Knots Altitude 24717ft
07:34 TOC
07:34 Fuel Weight: 20162 Lb
07:49 Wind:015º@022 Knots Heading: 290º Ground Speed: 456 Knots Altitude 25964 ft
08:04 Wind:081º@007 Knots Heading: 265º Ground Speed: 466 Knots Altitude 25974 ft
08:15 TOD
08:15 Fuel Weight: 16138 Lb
08:19 Wind:205º@021 Knots Heading: 260º Ground Speed: 296 Knots Altitude 17693 ft
08:21 Flaps:1 at 217 Knots
08:24 Flaps:2 at 193 Knots
08:24 Gear Down: 192 Knots
08:24 Flaps:3 at 191 Knots
08:27 TouchDown:Rate -676 ft/min Speed: 137 Knots
08:28 VATSIM:LIEA 030820Z 21008KT 150V260 9999 FEW020 21/16 Q1015
08:28 Land
08:28 Wind:209º@009 Knots
08:28 Heading: 205º
08:28 Flight Duration: 01:09
08:28 Landing Weight: 97041 Lbs
08:28 POS N40º 38´ 15´´ E008º 17´ 38´´
08:28 Parking brakes on
08:28 Block to Block Duration: 01:11
08:28 Final Fuel: 15207 Lbls
08:28 Spent Fuel: 7482 Lbls
08:28 Flight Length: 453 NM
08:28 TOD Land Length: 53 NM

Exportar CSV

Powered by Drupal - Modified by Danger4k